Rio Vista Municipal (O88)
Rio Vista, CA
Field Elevation: 22
Lat: 38°11.60N  Long: 121°42.22W
CTAF/Unicom Freq: 122.7250
   
     For Weather-by-Phone, call (707) 374-5396
Weather Advisories
2019-09-18   23:50 Z
Altimeter 29.90" Hg
Wind 220° @ 12 KT
Gusts 16 KT
Visibility --
Ceiling CLR
Temperature 24° C (75° F)
Dewpoint 11° C (52° F)
Relative Humidity 46%
Density Altitude 1,100 feet
Condensation Altitude 6,400 feet
Wind and Runways
Indicated Runway = 25
Headwind = 10 kt
Crosswind = 6 kt
History
 
 
 
More Info
All DigiWx sites map
NOAA Forecast
 
Airport IQ 5010
(DUC) Stack Farm
(CA37) Dominican
 
about DigiWx
 
FAA Disclaimer: The data displayed is for advisory purposes only and is not to be used for flight planning or operations. For official data, please call (707) 374-5396 to hear the current automated AWOS voice message.
  METAR O88 182350Z AUTO 22012G16KT CLR 24/11 A2990